Time;durP1;ratioP1;P1;durP2;ratioP2;P2;SDS_P1;SDS_P2;PMS_P1;PMS_P2;Temp;Humidity;BMP_temperature;BMP_pressure;BME280_temperature;BME280_humidity;BME280_pressure;Samples;Min_cycle;Max_cycle;Signal;HPM_P1;HPM_P2
2022/10/20 00:01:02;;;;;;;16.20;9.73;;;;;;;-145.18;100.00;46664.31;5071675;28;20268;-70
2022/10/20 00:03:27;;;;;;;17.40;9.53;;;;;;;-145.18;100.00;46668.22;5072163;28;20571;-70
2022/10/20 00:05:53;;;;;;;17.30;9.57;;;;;;;-145.18;100.00;46670.16;5071792;28;20024;-71
2022/10/20 00:08:19;;;;;;;16.70;8.90;;;;;;;-145.18;100.00;46672.13;5071697;28;20067;-70
2022/10/20 00:10:54;;;;;;;17.13;9.70;;;;;;;-145.18;100.00;46666.25;5072078;28;20058;-70
2022/10/20 00:13:20;;;;;;;19.30;9.17;;;;;;;-145.18;100.00;46670.16;5071890;28;20029;-70
2022/10/20 00:15:50;;;;;;;15.33;8.93;;;;;;;-145.18;100.00;46662.34;5071587;28;20105;-70
2022/10/20 00:18:15;;;;;;;14.73;9.43;;;;;;;-145.18;100.00;46666.25;5071423;28;20362;-70
2022/10/20 00:20:40;;;;;;;14.23;9.63;;;;;;;-145.18;100.00;46666.25;5053712;28;20269;-70
2022/10/20 00:23:06;;;;;;;17.77;9.60;;;;;;;-145.18;100.00;46664.31;5071579;28;20025;-70
2022/10/20 00:25:31;;;;;;;17.97;9.27;;;;;;;-145.18;100.00;46664.31;5071877;28;20396;-70
2022/10/20 00:27:56;;;;;;;20.57;9.63;;;;;;;-145.18;100.00;46668.22;5070732;28;20075;-70
2022/10/20 00:30:22;;;;;;;23.13;11.27;;;;;;;-145.18;100.00;46666.25;5071791;28;20033;-70
2022/10/20 00:32:47;;;;;;;21.20;9.63;;;;;;;-145.18;100.00;46666.25;5071129;28;20024;-70
2022/10/20 00:35:12;;;;;;;20.13;10.33;;;;;;;-145.18;100.00;46664.31;5071785;28;20580;-70
2022/10/20 00:37:38;;;;;;;24.50;11.17;;;;;;;-145.18;100.00;46664.31;5070889;28;20441;-70
2022/10/20 00:40:03;;;;;;;22.40;10.10;;;;;;;-145.18;100.00;46658.44;5071330;28;20501;-70
2022/10/20 00:42:29;;;;;;;19.50;10.50;;;;;;;-145.18;100.00;46660.41;5071187;28;20098;-70
2022/10/20 00:44:58;;;;;;;23.60;9.90;;;;;;;-145.18;100.00;46666.25;5053084;28;20035;-71
2022/10/20 00:47:42;;;;;;;18.13;11.53;;;;;;;-145.18;100.00;46662.34;5071249;28;20440;-70
2022/10/20 00:50:12;;;;;;;19.57;10.67;;;;;;;-145.18;100.00;46666.25;5053180;28;20270;-70
2022/10/20 00:52:40;;;;;;;16.90;11.07;;;;;;;-145.18;100.00;46660.41;5070595;28;20265;-70
2022/10/20 00:55:08;;;;;;;21.27;10.90;;;;;;;-145.18;100.00;46664.31;5071189;28;20253;-70
2022/10/20 00:57:34;;;;;;;15.70;10.53;;;;;;;-145.18;100.00;46664.31;5070673;28;20268;-70
2022/10/20 01:00:00;;;;;;;21.07;10.37;;;;;;;-145.18;100.00;46660.41;5070788;28;20266;-70
2022/10/20 01:02:25;;;;;;;20.00;10.67;;;;;;;-145.18;100.00;46666.25;5070203;28;20636;-70
2022/10/20 01:04:51;;;;;;;17.70;10.20;;;;;;;-145.18;100.00;46658.44;5070625;28;20060;-70
2022/10/20 01:07:16;;;;;;;19.00;10.67;;;;;;;-145.18;100.00;46664.31;5070738;28;20082;-70
2022/10/20 01:09:42;;;;;;;20.03;11.17;;;;;;;-145.18;100.00;46664.31;5070558;28;20036;-70
2022/10/20 01:12:18;;;;;;;15.77;10.43;;;;;;;-145.18;100.00;46662.34;5070593;28;20035;-70
2022/10/20 01:14:59;;;;;;;21.93;11.37;;;;;;;-145.18;100.00;46660.41;5070800;28;20048;-71
2022/10/20 01:18:01;;;;;;;20.10;11.30;;;;;;;-145.18;100.00;46666.25;5052528;28;20280;-70
2022/10/20 01:20:27;;;;;;;23.47;11.63;;;;;;;-145.18;100.00;46656.50;5039537;28;20289;-70
2022/10/20 01:23:14;;;;;;;21.03;10.93;;;;;;;-145.18;100.00;46656.50;5070281;28;20277;-70
2022/10/20 01:26:11;;;;;;;19.10;10.90;;;;;;;-145.18;100.00;46660.41;5070693;28;20071;-70
2022/10/20 01:28:48;;;;;;;18.98;11.68;;;;;;;-145.18;100.00;46658.44;5070673;28;20766;-70
2022/10/20 01:31:36;;;;;;;21.67;12.27;;;;;;;-145.18;100.00;46658.44;5070309;28;20028;-70
2022/10/20 01:34:10;;;;;;;19.40;11.30;;;;;;;-145.18;100.00;46660.41;5052368;28;20614;-70
2022/10/20 01:36:54;;;;;;;17.40;10.87;;;;;;;-145.18;100.00;46660.41;5070363;28;20273;-70
2022/10/20 01:39:51;;;;;;;21.53;11.17;;;;;;;-145.18;100.00;46662.34;5070508;28;20285;-70
2022/10/20 01:42:23;;;;;;;;;;;;;;;-145.18;100.00;46664.31;5070516;28;20265;-70
2022/10/20 01:44:52;;;;;;;18.30;10.60;;;;;;;-145.18;100.00;46660.41;5070532;28;19912;-70
2022/10/20 01:47:21;;;;;;;25.03;11.70;;;;;;;-145.18;100.00;46658.44;5069604;28;20258;-70
2022/10/20 01:49:48;;;;;;;22.40;11.73;;;;;;;-145.18;100.00;46658.44;5052368;28;20269;-70
2022/10/20 01:52:14;;;;;;;22.70;11.43;;;;;;;-145.18;100.00;46662.34;5069959;28;20249;-71
2022/10/20 01:54:39;;;;;;;20.50;11.33;;;;;;;-145.18;100.00;46656.50;5070117;28;20261;-70
2022/10/20 01:57:35;;;;;;;16.47;11.23;;;;;;;-145.18;100.00;46660.41;5069780;28;20427;-70
2022/10/20 02:00:08;;;;;;;22.30;12.40;;;;;;;-145.18;100.00;46656.50;5070261;28;20029;-70
2022/10/20 02:02:42;;;;;;;21.23;12.87;;;;;;;-145.18;100.00;46658.44;5069622;28;20129;-70
2022/10/20 02:05:36;;;;;;;23.67;11.80;;;;;;;-145.18;100.00;46660.41;5070124;28;20290;-70
2022/10/20 02:08:29;;;;;;;23.40;12.70;;;;;;;-145.18;100.00;46658.44;5069574;28;20817;-70
2022/10/20 02:10:58;;;;;;;23.40;13.10;;;;;;;-145.18;100.00;46658.44;5070112;28;20268;-70
2022/10/20 02:13:25;;;;;;;22.70;12.57;;;;;;;-145.18;100.00;46656.50;5070064;28;20314;-70
2022/10/20 02:15:54;;;;;;;21.87;13.03;;;;;;;-145.18;100.00;46654.53;5039875;28;20694;-70
2022/10/20 02:18:25;;;;;;;25.63;13.47;;;;;;;-145.18;100.00;46660.41;5055853;28;20633;-70
2022/10/20 02:20:53;;;;;;;22.67;12.77;;;;;;;-145.18;100.00;46658.44;5074130;28;20254;-70
2022/10/20 02:23:19;;;;;;;26.13;13.40;;;;;;;-145.18;100.00;46658.44;5073672;28;20260;-70
2022/10/20 02:25:48;;;;;;;21.43;13.33;;;;;;;-145.18;100.00;46656.50;5073791;28;20261;-70
2022/10/20 02:28:14;;;;;;;22.57;12.43;;;;;;;-145.18;100.00;46662.34;5073808;28;20036;-70
2022/10/20 02:30:41;;;;;;;24.50;13.13;;;;;;;-145.18;100.00;46658.44;5073972;28;20352;-70
2022/10/20 02:33:07;;;;;;;27.23;12.87;;;;;;;-145.18;100.00;46662.34;5073407;28;20609;-70
2022/10/20 02:35:33;;;;;;;23.77;13.90;;;;;;;-145.18;100.00;46654.53;5073784;28;20268;-70
2022/10/20 02:37:59;;;;;;;23.33;14.13;;;;;;;-145.18;100.00;46658.44;5073327;28;20324;-70
2022/10/20 02:40:25;;;;;;;23.07;15.00;;;;;;;-145.18;100.00;46658.44;5073949;28;20307;-70
2022/10/20 02:42:50;;;;;;;23.23;13.83;;;;;;;-145.18;100.00;46662.34;5073221;28;20151;-70
2022/10/20 02:45:16;;;;;;;24.17;13.40;;;;;;;-145.18;100.00;46658.44;5073682;28;20504;-70
2022/10/20 02:47:41;;;;;;;23.63;15.03;;;;;;;-145.18;100.00;46654.53;5072961;28;20044;-70
2022/10/20 02:50:08;;;;;;;26.43;14.40;;;;;;;-145.18;100.00;46658.44;5073968;28;20028;-70
2022/10/20 02:52:34;;;;;;;33.97;15.53;;;;;;;-145.18;100.00;46658.44;5072956;28;20056;-70
2022/10/20 02:54:59;;;;;;;26.57;15.23;;;;;;;-145.18;100.00;46650.63;5073159;28;20308;-70
2022/10/20 02:57:25;;;;;;;31.60;15.73;;;;;;;-145.18;100.00;46658.44;5072984;28;20032;-70
2022/10/20 02:59:51;;;;;;;23.93;13.83;;;;;;;-145.18;100.00;46654.53;5073349;28;20722;-70
2022/10/20 03:02:17;;;;;;;27.60;14.93;;;;;;;-145.18;100.00;46660.41;5441407;22;21117;-71
2022/10/20 03:04:42;;;;;;;26.63;15.80;;;;;;;-145.18;100.00;46654.53;5049790;28;20463;-71
2022/10/20 03:07:07;;;;;;;28.30;16.73;;;;;;;-145.18;100.00;46652.59;5052265;28;20136;-71
2022/10/20 03:09:33;;;;;;;29.47;15.83;;;;;;;-145.18;100.00;46660.41;5052818;28;20044;-71
2022/10/20 03:11:58;;;;;;;24.40;15.50;;;;;;;-145.18;100.00;46656.50;5051860;28;20033;-71
2022/10/20 03:14:23;;;;;;;24.10;15.83;;;;;;;-145.18;100.00;46654.53;5053068;28;20108;-71
2022/10/20 03:16:49;;;;;;;30.73;17.03;;;;;;;-145.18;100.00;46656.50;5052664;28;20068;-72
2022/10/20 03:19:14;;;;;;;32.27;16.90;;;;;;;-145.18;100.00;46652.59;5052563;28;20037;-71
2022/10/20 03:21:39;;;;;;;25.63;16.63;;;;;;;-145.18;100.00;46660.41;5052939;28;20060;-72
2022/10/20 03:24:05;;;;;;;29.27;16.70;;;;;;;-145.18;100.00;46656.50;5051166;28;20493;-71
2022/10/20 03:26:31;;;;;;;33.83;16.77;;;;;;;-145.18;100.00;46654.53;5053166;28;20082;-71
2022/10/20 03:28:56;;;;;;;26.30;15.90;;;;;;;-145.18;100.00;46652.59;5056498;28;20036;-70
2022/10/20 03:31:22;;;;;;;30.90;17.47;;;;;;;-145.18;100.00;46656.50;5058461;28;20274;-70
2022/10/20 03:33:47;;;;;;;34.37;18.30;;;;;;;-145.18;100.00;46654.53;5052115;28;20045;-70
2022/10/20 03:36:12;;;;;;;35.07;18.33;;;;;;;-145.18;100.00;46654.53;5055208;28;20120;-70
2022/10/20 03:38:40;;;;;;;28.97;18.83;;;;;;;-145.18;100.00;46656.50;5060357;28;20052;-70
2022/10/20 03:41:06;;;;;;;33.27;19.13;;;;;;;-145.18;100.00;46656.50;5051827;28;20037;-70
2022/10/20 03:43:31;;;;;;;35.27;16.80;;;;;;;-145.18;100.00;46652.59;5051987;28;20289;-70
2022/10/20 03:46:05;;;;;;;32.10;17.83;;;;;;;-145.18;100.00;46652.59;5052261;28;20029;-70
2022/10/20 03:48:31;;;;;;;30.20;17.43;;;;;;;-145.18;100.00;46656.50;5057972;28;20107;-70
2022/10/20 03:50:58;;;;;;;30.90;18.93;;;;;;;-145.18;100.00;46652.59;5034089;28;20277;-70
2022/10/20 03:53:24;;;;;;;38.40;18.70;;;;;;;-145.18;100.00;46654.53;5051477;28;20111;-70
2022/10/20 03:55:49;;;;;;;32.90;18.47;;;;;;;-145.18;100.00;46656.50;5052256;28;20810;-70
2022/10/20 03:58:15;;;;;;;30.00;18.23;;;;;;;-145.18;100.00;46654.53;5056100;28;20044;-70
2022/10/20 04:00:40;;;;;;;31.80;18.37;;;;;;;-145.18;100.00;46652.59;5052100;28;20520;-70
2022/10/20 04:03:05;;;;;;;33.50;18.20;;;;;;;-145.18;100.00;46654.53;5034210;28;20084;-70
2022/10/20 04:05:30;;;;;;;31.10;18.90;;;;;;;-145.18;100.00;46658.44;5039787;28;20702;-70
2022/10/20 04:07:56;;;;;;;36.30;19.23;;;;;;;-145.18;100.00;46654.53;5035115;28;20080;-70
2022/10/20 04:10:21;;;;;;;33.17;19.67;;;;;;;-145.18;100.00;46654.53;5031904;28;20033;-70
2022/10/20 04:12:46;;;;;;;33.13;19.83;;;;;;;-145.18;100.00;46652.59;5031234;28;20069;-70
2022/10/20 04:15:12;;;;;;;32.83;19.93;;;;;;;-145.18;100.00;46652.59;5031776;28;20124;-69
2022/10/20 04:17:37;;;;;;;37.33;20.50;;;;;;;-145.18;100.00;46658.44;5051536;28;20478;-70
2022/10/20 04:20:05;;;;;;;33.70;19.93;;;;;;;-145.18;100.00;46656.50;5051749;28;20132;-70
2022/10/20 04:22:30;;;;;;;41.13;20.23;;;;;;;-145.18;100.00;46652.59;5051339;28;20037;-70
2022/10/20 04:24:56;;;;;;;33.87;19.00;;;;;;;-145.18;100.00;46656.50;5051661;28;20626;-70
2022/10/20 04:27:21;;;;;;;32.20;19.17;;;;;;;-145.18;100.00;46650.63;5051473;28;20029;-69
2022/10/20 04:29:47;;;;;;;29.07;19.47;;;;;;;-145.18;100.00;46652.59;5051739;28;20163;-69
2022/10/20 04:32:12;;;;;;;29.80;18.57;;;;;;;-145.18;100.00;46652.59;5038984;28;20038;-70
2022/10/20 04:34:38;;;;;;;31.53;18.50;;;;;;;-145.18;100.00;46654.53;5030585;28;20030;-70
2022/10/20 04:37:04;;;;;;;32.93;18.07;;;;;;;-145.18;100.00;46648.69;5029782;28;20033;-70
2022/10/20 04:39:29;;;;;;;42.53;19.40;;;;;;;-145.18;100.00;46652.59;5012536;28;20128;-70
2022/10/20 04:41:55;;;;;;;31.17;18.17;;;;;;;-145.18;100.00;46652.59;5030466;28;20440;-70
2022/10/20 04:44:20;;;;;;;36.43;18.53;;;;;;;-145.18;100.00;46656.50;5030672;28;20083;-70
2022/10/20 04:46:45;;;;;;;34.53;19.17;;;;;;;-145.18;100.00;46654.53;5031685;28;20383;-70
2022/10/20 04:49:11;;;;;;;34.60;19.07;;;;;;;-145.18;100.00;46652.59;5027750;28;20563;-70
2022/10/20 04:51:36;;;;;;;28.20;17.70;;;;;;;-145.18;100.00;46652.59;5031329;28;20033;-71
2022/10/20 04:54:02;;;;;;;36.17;19.63;;;;;;;-145.18;100.00;46652.59;5030997;28;20025;-71
2022/10/20 04:56:27;;;;;;;32.33;19.27;;;;;;;-145.18;100.00;46658.44;5011935;28;20095;-70
2022/10/20 04:58:57;;;;;;;27.67;18.33;;;;;;;-145.18;100.00;46652.59;5029080;28;20036;-71
2022/10/20 05:01:26;;;;;;;28.20;18.40;;;;;;;-145.18;100.00;46652.59;5030576;28;20101;-70
2022/10/20 05:03:52;;;;;;;30.37;17.77;;;;;;;-145.18;100.00;46652.59;5030573;28;20318;-70
2022/10/20 05:06:18;;;;;;;31.63;18.83;;;;;;;-145.18;100.00;46654.53;5031206;28;20376;-70
2022/10/20 05:08:45;;;;;;;33.40;18.77;;;;;;;-145.18;100.00;46652.59;5030657;28;20037;-70
2022/10/20 05:11:11;;;;;;;27.80;18.03;;;;;;;-145.18;100.00;46652.59;5030919;28;20266;-70
2022/10/20 05:13:37;;;;;;;29.00;17.30;;;;;;;-145.18;100.00;46654.53;5030540;28;20279;-70
2022/10/20 05:16:03;;;;;;;30.23;17.33;;;;;;;-145.18;100.00;46650.63;5031166;28;20317;-70
2022/10/20 05:18:29;;;;;;;28.00;18.67;;;;;;;-145.18;100.00;46654.53;5030572;28;20033;-70
2022/10/20 05:20:55;;;;;;;33.23;18.07;;;;;;;-145.18;100.00;46650.63;5030742;28;20297;-70
2022/10/20 05:23:21;;;;;;;30.07;19.20;;;;;;;-145.18;100.00;46656.50;5030606;28;20071;-70
2022/10/20 05:25:46;;;;;;;36.77;18.90;;;;;;;-145.18;100.00;46652.59;5031019;28;20379;-70
2022/10/20 05:28:12;;;;;;;34.80;19.33;;;;;;;-145.18;100.00;46656.50;5030249;28;20587;-70
2022/10/20 05:30:38;;;;;;;33.77;18.50;;;;;;;-145.18;100.00;46652.59;5031022;28;20029;-70
2022/10/20 05:33:03;;;;;;;32.10;19.50;;;;;;;-145.18;100.00;46656.50;5030262;28;20045;-70
2022/10/20 05:35:29;;;;;;;28.37;18.47;;;;;;;-145.18;100.00;46650.63;5030784;28;20025;-70
2022/10/20 05:37:55;;;;;;;27.37;18.27;;;;;;;-145.18;100.00;46650.63;5030278;28;20095;-70
2022/10/20 05:40:21;;;;;;;33.03;18.77;;;;;;;-145.18;100.00;46654.53;5030905;28;20289;-70
2022/10/20 05:42:47;;;;;;;32.13;18.63;;;;;;;-145.18;100.00;46648.69;5030305;28;20266;-70
2022/10/20 05:45:13;;;;;;;30.57;18.90;;;;;;;-145.18;100.00;46652.59;5030605;28;20041;-70
2022/10/20 05:47:39;;;;;;;28.87;18.77;;;;;;;-145.18;100.00;46650.63;5029393;28;20536;-70
2022/10/20 05:50:05;;;;;;;34.83;18.67;;;;;;;-145.18;100.00;46650.63;5029883;28;20167;-70
2022/10/20 05:52:30;;;;;;;32.67;18.40;;;;;;;-145.18;100.00;46658.44;5030192;28;20033;-70
2022/10/20 05:54:56;;;;;;;43.90;19.20;;;;;;;-145.18;100.00;46656.50;5029752;28;20679;-70
2022/10/20 05:57:21;;;;;;;24.53;17.23;;;;;;;-145.18;100.00;46652.59;5029976;28;20041;-71
2022/10/20 05:59:46;;;;;;;30.53;18.83;;;;;;;-145.18;100.00;46652.59;5028171;28;20047;-70
2022/10/20 06:02:12;;;;;;;31.40;18.93;;;;;;;-145.18;100.00;46654.53;5029977;28;20032;-71
2022/10/20 06:04:38;;;;;;;31.13;18.83;;;;;;;-145.18;100.00;46652.59;5029743;28;20510;-70
2022/10/20 06:07:08;;;;;;;34.47;18.83;;;;;;;-145.18;100.00;46652.59;5029343;28;20044;-71
2022/10/20 06:09:35;;;;;;;34.37;20.47;;;;;;;-145.18;100.00;46654.53;5028778;28;20056;-71
2022/10/20 06:12:00;;;;;;;32.47;19.70;;;;;;;-145.18;100.00;46648.69;5029405;28;20278;-71
2022/10/20 06:14:26;;;;;;;32.63;19.97;;;;;;;-145.18;100.00;46648.69;5029786;28;20275;-70
2022/10/20 06:16:52;;;;;;;34.20;20.17;;;;;;;-145.18;100.00;46652.59;5030329;28;20048;-71
2022/10/20 06:19:18;;;;;;;32.67;20.20;;;;;;;-145.18;100.00;46656.50;5029429;28;20056;-71
2022/10/20 06:21:43;;;;;;;35.33;19.00;;;;;;;-145.18;100.00;46654.53;5010899;28;20763;-70
2022/10/20 06:24:10;;;;;;;38.23;20.17;;;;;;;-145.18;100.00;46646.72;5028735;28;20037;-70
2022/10/20 06:26:36;;;;;;;33.07;21.10;;;;;;;-145.18;100.00;46648.69;5030068;28;20022;-70
2022/10/20 06:29:04;;;;;;;37.73;21.03;;;;;;;-145.18;100.00;46654.53;5029265;28;20259;-71
2022/10/20 06:31:38;;;;;;;39.37;20.70;;;;;;;-145.18;100.00;46652.59;5029898;28;20302;-71
2022/10/20 06:34:05;;;;;;;37.97;22.27;;;;;;;-145.18;100.00;46654.53;5029265;28;20370;-71
2022/10/20 06:36:34;;;;;;;37.90;21.20;;;;;;;-145.18;100.00;46654.53;5030214;28;20266;-71
2022/10/20 06:39:00;;;;;;;31.87;20.90;;;;;;;-145.18;100.00;46654.53;5011271;28;20410;-71
2022/10/20 06:41:27;;;;;;;33.97;20.63;;;;;;;-145.18;100.00;46654.53;5030129;28;20054;-71
2022/10/20 06:43:57;;;;;;;35.70;21.30;;;;;;;-145.18;100.00;46652.59;5029878;28;20025;-71
2022/10/20 06:46:23;;;;;;;39.80;21.03;;;;;;;-145.18;100.00;46648.69;5030133;28;20390;-71
2022/10/20 06:48:48;;;;;;;36.80;22.30;;;;;;;-145.18;100.00;46654.53;5029347;28;20353;-71
2022/10/20 06:51:15;;;;;;;37.37;21.73;;;;;;;-145.18;100.00;46650.63;5029839;28;20367;-71
2022/10/20 06:53:42;;;;;;;32.53;21.33;;;;;;;-145.18;100.00;46654.53;5029868;28;20053;-71
2022/10/20 06:56:11;;;;;;;36.83;21.57;;;;;;;-145.18;100.00;46650.63;5029763;28;20076;-71
2022/10/20 06:58:38;;;;;;;40.57;22.37;;;;;;;-145.18;100.00;46650.63;5029569;28;20306;-71
2022/10/20 07:01:05;;;;;;;36.77;21.83;;;;;;;-145.18;100.00;46650.63;5032182;28;20298;-71
2022/10/20 07:03:31;;;;;;;37.60;21.57;;;;;;;-145.18;100.00;46652.59;5033047;28;20282;-71
2022/10/20 07:05:57;;;;;;;37.40;22.83;;;;;;;-145.18;100.00;46652.59;5033499;28;20077;-71
2022/10/20 07:08:23;;;;;;;34.13;21.97;;;;;;;-145.18;100.00;46648.69;5033019;28;20536;-71
2022/10/20 07:11:06;;;;;;;34.80;21.57;;;;;;;-145.18;100.00;46652.59;5033547;28;20349;-71
2022/10/20 07:13:32;;;;;;;37.80;23.27;;;;;;;-145.18;100.00;46656.50;5032683;28;20844;-71
2022/10/20 07:15:58;;;;;;;46.90;23.07;;;;;;;-145.18;100.00;46654.53;5033314;28;20033;-71
2022/10/20 07:18:26;;;;;;;41.50;23.10;;;;;;;-145.18;100.00;46652.59;5032962;28;20056;-71
2022/10/20 07:20:55;;;;;;;37.67;22.07;;;;;;;-145.18;100.00;46652.59;5033237;28;20028;-71
2022/10/20 07:23:21;;;;;;;39.30;22.43;;;;;;;-145.18;100.00;46656.50;5014618;28;20393;-71
2022/10/20 07:25:46;;;;;;;35.77;21.07;;;;;;;-145.18;100.00;46650.63;5033132;28;20069;-71
2022/10/20 07:28:11;;;;;;;32.60;20.63;;;;;;;-145.18;100.00;46652.59;5014767;28;20065;-71
2022/10/20 07:30:41;;;;;;;33.97;20.33;;;;;;;-145.18;100.00;46656.50;5033067;28;20079;-71
2022/10/20 07:33:08;;;;;;;33.53;21.67;;;;;;;-145.18;100.00;46654.53;5032434;28;20096;-71
2022/10/20 07:35:34;;;;;;;36.73;20.13;;;;;;;-145.18;100.00;46654.53;5033038;28;20033;-71
2022/10/20 07:37:59;;;;;;;37.43;20.93;;;;;;;-145.18;100.00;46658.44;5032397;28;20037;-71
2022/10/20 07:40:25;;;;;;;32.30;20.77;;;;;;;-145.18;100.00;46656.50;5033180;28;20167;-71
2022/10/20 07:42:50;;;;;;;36.33;20.67;;;;;;;-145.18;100.00;46652.59;5031964;28;20052;-71
2022/10/20 07:45:15;;;;;;;37.10;21.27;;;;;;;-145.18;100.00;46648.69;5032654;28;20047;-71
2022/10/20 07:47:41;;;;;;;32.40;20.37;;;;;;;-145.18;100.00;46654.53;5032556;28;20061;-71
2022/10/20 07:50:08;;;;;;;32.13;20.67;;;;;;;-145.18;100.00;46650.63;5014313;28;20056;-71
2022/10/20 07:52:33;;;;;;;38.13;20.77;;;;;;;-145.18;100.00;46658.44;5033065;28;20511;-71
2022/10/20 07:54:59;;;;;;;31.23;19.50;;;;;;;-145.18;100.00;46654.53;5032096;28;20045;-71
2022/10/20 07:57:24;;;;;;;40.23;21.50;;;;;;;-145.18;100.00;46660.41;5032521;28;20033;-71
2022/10/20 07:59:49;;;;;;;42.83;22.97;;;;;;;-145.18;100.00;46660.41;5031871;28;20083;-71
2022/10/20 08:02:16;;;;;;;34.40;21.40;;;;;;;-145.18;100.00;46654.53;5014516;28;20514;-71
2022/10/20 08:04:43;;;;;;;45.37;26.43;;;;;;;-145.18;100.00;46660.41;4992718;28;20114;-71
2022/10/20 08:07:09;;;;;;;34.37;20.80;;;;;;;-145.18;100.00;46652.59;4992769;28;20040;-71
2022/10/20 08:09:35;;;;;;;38.03;20.53;;;;;;;-145.18;100.00;46656.50;4992781;28;20430;-71
2022/10/20 08:12:01;;;;;;;32.57;20.63;;;;;;;-145.18;100.00;46658.44;4991898;28;20022;-71
2022/10/20 08:14:30;;;;;;;31.43;20.10;;;;;;;-145.18;100.00;46660.41;4992576;28;20463;-71
2022/10/20 08:16:56;;;;;;;37.00;21.97;;;;;;;-145.18;100.00;46656.50;4993265;28;20039;-71
2022/10/20 08:19:21;;;;;;;36.30;21.43;;;;;;;-145.18;100.00;46656.50;4992304;28;20061;-71
2022/10/20 08:21:46;;;;;;;36.20;21.73;;;;;;;-145.18;100.00;46660.41;4992933;28;20506;-71
2022/10/20 08:24:11;;;;;;;34.50;22.03;;;;;;;-145.18;100.00;46660.41;4991844;28;20026;-72
2022/10/20 08:26:37;;;;;;;35.83;21.77;;;;;;;-145.18;100.00;46664.31;4992790;28;20038;-71
2022/10/20 08:29:02;;;;;;;32.07;20.57;;;;;;;-145.18;100.00;46650.63;4992227;28;20396;-71
2022/10/20 08:31:27;;;;;;;37.80;21.30;;;;;;;-145.18;100.00;46658.44;4992624;28;20203;-71
2022/10/20 08:33:53;;;;;;;34.87;21.53;;;;;;;-145.18;100.00;46660.41;4991863;28;20097;-71
2022/10/20 08:36:19;;;;;;;33.93;21.60;;;;;;;-145.18;100.00;46658.44;4992301;28;20074;-71
2022/10/20 08:38:45;;;;;;;35.50;21.63;;;;;;;-145.18;100.00;46658.44;4992115;28;20042;-71
2022/10/20 08:41:23;;;;;;;34.70;20.97;;;;;;;-145.18;100.00;46660.41;4992224;28;20045;-71
2022/10/20 08:43:52;;;;;;;38.97;19.93;;;;;;;-145.18;100.00;46664.31;4992126;28;20030;-71
2022/10/20 08:46:21;;;;;;;32.40;20.57;;;;;;;-145.18;100.00;46656.50;4991627;28;20076;-71
2022/10/20 08:48:48;;;;;;;28.20;19.80;;;;;;;-145.18;100.00;46658.44;4991857;28;20034;-71
2022/10/20 08:51:26;;;;;;;32.80;19.80;;;;;;;-145.18;100.00;46660.41;4992189;28;20182;-71
2022/10/20 08:53:55;;;;;;;34.13;18.93;;;;;;;-145.18;100.00;46662.34;4991843;28;20506;-71
2022/10/20 08:56:25;;;;;;;31.33;17.80;;;;;;;-145.18;100.00;46660.41;4991873;28;20034;-71
2022/10/20 08:58:51;;;;;;;25.73;19.00;;;;;;;-145.18;100.00;46658.44;4991595;28;20045;-71
2022/10/20 09:01:19;;;;;;;33.33;19.20;;;;;;;-145.18;100.00;46662.34;4991785;28;20027;-71
2022/10/20 09:03:48;;;;;;;25.60;17.70;;;;;;;-145.18;100.00;46660.41;5015515;28;20128;-71
2022/10/20 09:06:15;;;;;;;26.93;17.83;;;;;;;-145.18;100.00;46662.34;5031245;28;20090;-71
2022/10/20 09:08:42;;;;;;;28.23;18.17;;;;;;;-145.18;100.00;46656.50;5030797;28;20041;-71
2022/10/20 09:11:14;;;;;;;25.67;16.97;;;;;;;-145.18;100.00;46660.41;5030665;28;20044;-71
2022/10/20 09:13:40;;;;;;;25.17;17.10;;;;;;;-145.18;100.00;46670.16;5030742;28;20497;-71
2022/10/20 09:16:16;;;;;;;24.20;17.97;;;;;;;-145.18;100.00;46668.22;5030795;28;20045;-72
2022/10/20 09:18:41;;;;;;;30.30;17.90;;;;;;;-145.18;100.00;46668.22;5030865;28;20036;-71
2022/10/20 09:21:20;;;;;;;38.20;18.13;;;;;;;-145.18;100.00;46662.34;5030477;28;20782;-72
2022/10/20 09:23:51;;;;;;;31.97;17.40;;;;;;;-145.18;100.00;46670.16;5030410;28;20029;-72
2022/10/20 09:26:19;;;;;;;26.83;16.40;;;;;;;-145.18;100.00;46670.16;5030735;28;20051;-71
2022/10/20 09:29:09;;;;;;;27.97;17.13;;;;;;;-145.18;100.00;46676.03;5030560;28;20485;-71
2022/10/20 09:31:43;;;;;;;24.77;16.40;;;;;;;-145.18;100.00;46672.13;5013318;28;20035;-71
2022/10/20 09:34:24;;;;;;;24.63;15.50;;;;;;;-145.18;100.00;46674.06;5030294;28;20045;-71
2022/10/20 09:37:15;;;;;;;22.47;15.97;;;;;;;-145.18;100.00;46672.13;5030773;28;20059;-71
2022/10/20 09:39:52;;;;;;;24.67;14.83;;;;;;;-145.18;100.00;46674.06;5030235;28;20095;-71
2022/10/20 09:42:24;;;;;;;24.73;15.27;;;;;;;-145.18;100.00;46676.03;5029397;28;20052;-71
2022/10/20 09:44:57;;;;;;;24.93;15.00;;;;;;;-145.18;100.00;46676.03;5030389;28;20462;-71
2022/10/20 09:47:25;;;;;;;24.87;15.77;;;;;;;-145.18;100.00;46677.97;5030506;28;20033;-71
2022/10/20 09:49:56;;;;;;;23.63;15.10;;;;;;;-145.18;100.00;46681.88;5030150;28;20386;-71
2022/10/20 09:52:24;;;;;;;21.37;15.73;;;;;;;-145.18;100.00;46677.97;5030333;28;20498;-71
2022/10/20 09:54:52;;;;;;;20.50;15.70;;;;;;;-145.18;100.00;46681.88;5029753;28;20033;-71
2022/10/20 09:57:19;;;;;;;23.07;15.47;;;;;;;-145.18;100.00;46677.97;5030372;28;20021;-71
2022/10/20 09:59:47;;;;;;;23.47;15.53;;;;;;;-145.18;100.00;46681.88;5030075;28;20052;-71
2022/10/20 10:02:15;;;;;;;27.33;15.57;;;;;;;-145.18;100.00;46683.84;5030211;28;20029;-71
2022/10/20 10:04:50;;;;;;;27.53;17.00;;;;;;;-145.18;100.00;46687.75;5029812;28;20060;-71
2022/10/20 10:07:21;;;;;;;27.70;15.93;;;;;;;-145.18;100.00;46681.88;5030468;28;20033;-72
2022/10/20 10:09:56;;;;;;;23.53;14.90;;;;;;;-145.18;100.00;46670.16;5029873;28;20077;-71
2022/10/20 10:12:23;;;;;;;21.90;15.40;;;;;;;-145.18;100.00;46676.03;5030204;28;20022;-72
2022/10/20 10:15:24;;;;;;;24.30;15.77;;;;;;;-145.18;100.00;46674.06;5029630;28;20029;-71
2022/10/20 10:17:50;;;;;;;22.97;15.43;;;;;;;-145.18;100.00;46674.06;5030109;28;20756;-70
2022/10/20 10:20:15;;;;;;;25.97;16.70;;;;;;;-145.18;100.00;46666.25;5029647;28;20086;-70
2022/10/20 10:22:42;;;;;;;26.33;15.53;;;;;;;-145.18;100.00;46670.16;5029240;28;20087;-71
2022/10/20 10:25:18;;;;;;;26.77;17.33;;;;;;;-145.18;100.00;46676.03;5029418;28;20510;-70
2022/10/20 10:28:02;;;;;;;25.02;15.77;;;;;;;-145.18;100.00;46670.16;5030295;28;20475;-70
2022/10/20 10:30:32;;;;;;;25.33;16.57;;;;;;;-145.18;100.00;46668.22;5029661;28;20403;-69
2022/10/20 10:32:57;;;;;;;24.40;17.07;;;;;;;-145.18;100.00;46672.13;5030289;28;20033;-69
2022/10/20 10:35:39;;;;;;;27.10;17.50;;;;;;;-145.18;100.00;46666.25;5031658;28;20536;-69
2022/10/20 10:38:08;;;;;;;27.53;17.57;;;;;;;-145.18;100.00;46670.16;5034008;28;20037;-69
2022/10/20 10:40:40;;;;;;;26.77;17.83;;;;;;;-145.18;100.00;46666.25;5033652;28;20041;-69
2022/10/20 10:43:15;;;;;;;28.67;18.90;;;;;;;-145.18;100.00;46670.16;5034125;28;20037;-69
2022/10/20 10:45:51;;;;;;;28.03;18.27;;;;;;;-145.18;100.00;46666.25;5033331;28;20025;-69
2022/10/20 10:49:07;;;;;;;28.37;18.43;;;;;;;-145.18;100.00;46668.22;5033615;28;20528;-69
2022/10/20 10:51:57;;;;;;;30.17;18.97;;;;;;;-145.18;100.00;46662.34;5010678;28;20054;-69
2022/10/20 10:54:41;;;;;;;30.63;18.83;;;;;;;-145.18;100.00;46666.25;5033217;28;20076;-70
2022/10/20 10:57:22;;;;;;;32.83;20.23;;;;;;;-145.18;100.00;46668.22;5032288;28;20402;-69
2022/10/20 10:59:50;;;;;;;31.80;19.70;;;;;;;-145.18;100.00;46668.22;5033312;28;20096;-70
2022/10/20 11:02:27;;;;;;;32.07;19.37;;;;;;;-145.18;100.00;46666.25;5033395;28;20025;-70